KBMT/BMT METAR and TAF weather

Enter ICAO airport designator
Station Type Date Time Source
KBMT METAR 2020/01/23 09:15 UTC NOAA

KBMT 230915Z AUTO 14007KT 7SM RA OVC008 17/16 A2987 RMK AO2 LTG DSNT SE T01670162


Station Type Date Time Source
KBMT Decoded METAR 2020/01/23 09:15 UTC NOAA

Station name not available
Jan 23, 2020 - 04:15 AM EST / 2020.01.23 0915 UTC
Wind: from the SE (140 degrees) at 8 MPH (7 KT):0
Visibility: 7 mile(s):0
Sky conditions: overcast
Weather: rain; Lightning observed
Temperature: 62.1 F (16.7 C)
Dew Point: 61.2 F (16.2 C)
Relative Humidity: 96%
Pressure (altimeter): 29.87 in. Hg (1011 hPa)
ob: KBMT 230915Z AUTO 14007KT 7SM RA OVC008 17/16 A2987 RMK AO2 LTG DSNT SE T01670162
cycle: 9

Station Type Date Time Source
KBMT TAF UTC NOAA

Error!

Example: see airport list